Accueil
METAR-TAF:

METAR-TAF

Aéroports :

Army Air Corps Middle Wallop

Middle Wallop, Angleterre

latitude: 51-09N, longitude: 001-34W, altitude: 91 m

Observation

Le bulletin a été fait il y a 2 heures et 12 minutes, à 02:50 UTC
Vent 4 kt de ouest
Température 11°C
Humidité 94%
Pression 1028 hPa
Visibilité 10 km ou plus

METAR: EGVP 060250Z AUTO 28004KT 9999 NCD 11/10 Q1028

Heure: 06:02 (05:02 UTC)

Prévision

Le bulletin a été fait il y a 15 heures et 2 minutes, à 14:00 UTC
Prévision valable du 05 à 15 UTC au 05 à 18 UTC
Vent 7 kt de nord-ouest
Visibilité 10 km ou plus
Nuages fragmentés à une hauteur de 4000 ft

TAF: EGVP 051400Z 0515/0518 31007KT 9999 BKN040

Observations et prévisions météorologiques de plus de 4000 aéroports (messages METAR et TAF).

Les stations disponibles sont représentées par des disques jaunes et rouges sur la carte.

Passer la souris dessus pour voir le nom de la station.

Cliquer dessus pour voir les observations et prévisions météorologiques.

Pour changer de carte: cliquez sur les boutons verts avec une croix noire pour zoomer, sur le bouton vert avec un tiret pour effectuer un zoom arrière, ou sur les flèches vertes pour les cartes adjacentes.


METAR-TAF: